sensor_id;sensor_type;location;lat;lon;timestamp;pressure;altitude;pressure_sealevel;temperature;humidity
48156;BME280;35568;48.104;11.782;2023-06-04T00:00:07;95373.97;;;14.56;42.05
48156;BME280;35568;48.104;11.782;2023-06-04T00:02:35;95374.64;;;14.75;41.80
48156;BME280;35568;48.104;11.782;2023-06-04T00:05:02;95372.44;;;14.71;41.76
48156;BME280;35568;48.104;11.782;2023-06-04T00:07:29;95370.99;;;14.52;41.86
48156;BME280;35568;48.104;11.782;2023-06-04T00:09:56;95375.22;;;14.43;41.50
48156;BME280;35568;48.104;11.782;2023-06-04T00:12:23;95379.12;;;14.45;41.65
48156;BME280;35568;48.104;11.782;2023-06-04T00:14:50;95379.93;;;14.59;41.69
48156;BME280;35568;48.104;11.782;2023-06-04T00:17:16;95377.59;;;14.53;41.71
48156;BME280;35568;48.104;11.782;2023-06-04T00:19:43;95369.99;;;14.71;41.40
48156;BME280;35568;48.104;11.782;2023-06-04T00:22:11;95364.87;;;14.30;41.43
48156;BME280;35568;48.104;11.782;2023-06-04T00:24:38;95366.80;;;14.19;41.23
48156;BME280;35568;48.104;11.782;2023-06-04T00:27:07;95362.44;;;14.43;41.14
48156;BME280;35568;48.104;11.782;2023-06-04T00:29:35;95358.58;;;14.31;41.19
48156;BME280;35568;48.104;11.782;2023-06-04T00:32:03;95358.92;;;14.37;40.99
48156;BME280;35568;48.104;11.782;2023-06-04T00:34:30;95358.49;;;14.46;40.83
48156;BME280;35568;48.104;11.782;2023-06-04T00:36:57;95353.02;;;14.37;40.89
48156;BME280;35568;48.104;11.782;2023-06-04T00:39:24;95347.48;;;14.29;40.58
48156;BME280;35568;48.104;11.782;2023-06-04T00:41:50;95344.80;;;13.98;40.82
48156;BME280;35568;48.104;11.782;2023-06-04T00:44:17;95347.41;;;14.04;40.71
48156;BME280;35568;48.104;11.782;2023-06-04T00:46:44;95347.99;;;14.10;40.54
48156;BME280;35568;48.104;11.782;2023-06-04T00:49:12;95347.67;;;13.19;40.36
48156;BME280;35568;48.104;11.782;2023-06-04T00:51:39;95344.01;;;14.24;39.77
48156;BME280;35568;48.104;11.782;2023-06-04T00:54:07;95343.35;;;14.32;39.67
48156;BME280;35568;48.104;11.782;2023-06-04T00:56:34;95344.94;;;14.05;39.66
48156;BME280;35568;48.104;11.782;2023-06-04T00:59:02;95343.98;;;14.13;39.77
48156;BME280;35568;48.104;11.782;2023-06-04T01:01:37;95346.14;;;14.17;39.96
48156;BME280;35568;48.104;11.782;2023-06-04T01:04:12;95347.37;;;14.06;39.73
48156;BME280;35568;48.104;11.782;2023-06-04T01:06:44;95349.87;;;13.85;40.01
48156;BME280;35568;48.104;11.782;2023-06-04T01:09:13;95350.61;;;14.16;39.69
48156;BME280;35568;48.104;11.782;2023-06-04T01:11:40;95355.24;;;14.03;39.81
48156;BME280;35568;48.104;11.782;2023-06-04T01:14:09;95360.31;;;13.91;40.29
48156;BME280;35568;48.104;11.782;2023-06-04T01:16:48;95359.47;;;13.82;40.56
48156;BME280;35568;48.104;11.782;2023-06-04T01:19:30;95365.87;;;13.73;40.91
48156;BME280;35568;48.104;11.782;2023-06-04T01:22:06;95368.43;;;13.66;40.92
48156;BME280;35568;48.104;11.782;2023-06-04T01:24:37;95372.00;;;13.59;40.87
48156;BME280;35568;48.104;11.782;2023-06-04T01:27:08;95367.38;;;13.51;41.04
48156;BME280;35568;48.104;11.782;2023-06-04T01:29:36;95363.05;;;13.39;41.17
48156;BME280;35568;48.104;11.782;2023-06-04T01:32:04;95361.83;;;13.53;41.48
48156;BME280;35568;48.104;11.782;2023-06-04T01:34:43;95364.42;;;13.53;41.62
48156;BME280;35568;48.104;11.782;2023-06-04T01:37:11;95370.93;;;13.43;41.49
48156;BME280;35568;48.104;11.782;2023-06-04T01:39:37;95371.38;;;13.07;41.91
48156;BME280;35568;48.104;11.782;2023-06-04T01:42:05;95370.23;;;12.95;41.96
48156;BME280;35568;48.104;11.782;2023-06-04T01:44:33;95376.34;;;13.07;42.37
48156;BME280;35568;48.104;11.782;2023-06-04T01:47:00;95375.75;;;13.16;42.78
48156;BME280;35568;48.104;11.782;2023-06-04T01:49:27;95374.70;;;12.92;42.94
48156;BME280;35568;48.104;11.782;2023-06-04T01:51:54;95373.74;;;13.15;42.93
48156;BME280;35568;48.104;11.782;2023-06-04T01:54:20;95373.26;;;13.05;42.95
48156;BME280;35568;48.104;11.782;2023-06-04T01:56:47;95373.40;;;12.92;43.39
48156;BME280;35568;48.104;11.782;2023-06-04T01:59:14;95373.59;;;12.83;43.52
48156;BME280;35568;48.104;11.782;2023-06-04T02:01:41;95373.20;;;12.66;43.39
48156;BME280;35568;48.104;11.782;2023-06-04T02:04:08;95370.13;;;12.56;43.48
48156;BME280;35568;48.104;11.782;2023-06-04T02:06:35;95370.22;;;12.31;43.91
48156;BME280;35568;48.104;11.782;2023-06-04T02:09:01;95373.77;;;12.58;43.78
48156;BME280;35568;48.104;11.782;2023-06-04T02:11:28;95377.95;;;12.05;44.16
48156;BME280;35568;48.104;11.782;2023-06-04T02:13:55;95381.89;;;12.36;44.21
48156;BME280;35568;48.104;11.782;2023-06-04T02:16:22;95382.29;;;12.22;44.03
48156;BME280;35568;48.104;11.782;2023-06-04T02:18:49;95383.09;;;12.18;44.10
48156;BME280;35568;48.104;11.782;2023-06-04T02:21:16;95380.77;;;12.16;44.46
48156;BME280;35568;48.104;11.782;2023-06-04T02:23:43;95383.80;;;12.05;44.71
48156;BME280;35568;48.104;11.782;2023-06-04T02:26:09;95391.52;;;12.13;45.01
48156;BME280;35568;48.104;11.782;2023-06-04T02:28:36;95395.32;;;12.05;45.33
48156;BME280;35568;48.104;11.782;2023-06-04T02:31:03;95395.63;;;12.07;45.40
48156;BME280;35568;48.104;11.782;2023-06-04T02:33:30;95392.95;;;11.96;45.42
48156;BME280;35568;48.104;11.782;2023-06-04T02:35:57;95395.44;;;12.16;45.48
48156;BME280;35568;48.104;11.782;2023-06-04T02:38:24;95395.92;;;11.75;45.39
48156;BME280;35568;48.104;11.782;2023-06-04T02:40:51;95395.75;;;11.62;45.73
48156;BME280;35568;48.104;11.782;2023-06-04T02:43:18;95398.39;;;11.22;46.18
48156;BME280;35568;48.104;11.782;2023-06-04T02:45:46;95398.94;;;11.91;46.39
48156;BME280;35568;48.104;11.782;2023-06-04T02:48:13;95400.78;;;11.89;45.98
48156;BME280;35568;48.104;11.782;2023-06-04T02:50:39;95401.20;;;11.48;45.69
48156;BME280;35568;48.104;11.782;2023-06-04T02:53:06;95396.31;;;11.68;45.99
48156;BME280;35568;48.104;11.782;2023-06-04T02:55:33;95395.71;;;11.39;46.02
48156;BME280;35568;48.104;11.782;2023-06-04T02:58:00;95396.31;;;11.65;46.20
48156;BME280;35568;48.104;11.782;2023-06-04T03:03:00;95393.68;;;11.22;46.31
48156;BME280;35568;48.104;11.782;2023-06-04T03:05:27;95395.89;;;11.33;46.39
48156;BME280;35568;48.104;11.782;2023-06-04T03:07:54;95395.83;;;11.60;45.99
48156;BME280;35568;48.104;11.782;2023-06-04T03:10:21;95399.44;;;11.83;45.61
48156;BME280;35568;48.104;11.782;2023-06-04T03:12:48;95399.20;;;11.39;45.52
48156;BME280;35568;48.104;11.782;2023-06-04T03:15:15;95397.70;;;11.85;45.49
48156;BME280;35568;48.104;11.782;2023-06-04T03:17:42;95397.65;;;11.97;45.21
48156;BME280;35568;48.104;11.782;2023-06-04T03:20:09;95398.47;;;11.96;44.93
48156;BME280;35568;48.104;11.782;2023-06-04T03:22:37;95401.29;;;11.61;45.71
48156;BME280;35568;48.104;11.782;2023-06-04T03:25:05;95404.67;;;11.96;46.10
48156;BME280;35568;48.104;11.782;2023-06-04T03:27:32;95409.62;;;11.74;46.08
48156;BME280;35568;48.104;11.782;2023-06-04T03:30:00;95409.72;;;11.38;46.70
48156;BME280;35568;48.104;11.782;2023-06-04T03:32:27;95412.75;;;11.13;46.64
48156;BME280;35568;48.104;11.782;2023-06-04T03:34:54;95417.33;;;11.60;46.29
48156;BME280;35568;48.104;11.782;2023-06-04T03:37:21;95419.38;;;11.70;46.15
48156;BME280;35568;48.104;11.782;2023-06-04T03:39:47;95424.75;;;11.80;46.27
48156;BME280;35568;48.104;11.782;2023-06-04T03:42:14;95427.24;;;11.77;46.29
48156;BME280;35568;48.104;11.782;2023-06-04T03:44:41;95429.43;;;11.20;46.80
48156;BME280;35568;48.104;11.782;2023-06-04T03:47:08;95432.06;;;11.35;47.02
48156;BME280;35568;48.104;11.782;2023-06-04T03:49:35;95434.28;;;11.48;46.76
48156;BME280;35568;48.104;11.782;2023-06-04T03:52:02;95435.52;;;11.49;46.56
48156;BME280;35568;48.104;11.782;2023-06-04T03:54:29;95433.67;;;11.72;46.78
48156;BME280;35568;48.104;11.782;2023-06-04T03:56:55;95435.48;;;11.54;46.46
48156;BME280;35568;48.104;11.782;2023-06-04T03:59:22;95436.84;;;11.70;46.23
48156;BME280;35568;48.104;11.782;2023-06-04T04:01:49;95440.26;;;11.90;46.30
48156;BME280;35568;48.104;11.782;2023-06-04T04:04:17;95437.94;;;11.45;46.41
48156;BME280;35568;48.104;11.782;2023-06-04T04:06:43;95435.58;;;11.88;46.19
48156;BME280;35568;48.104;11.782;2023-06-04T04:09:10;95435.80;;;11.83;45.93
48156;BME280;35568;48.104;11.782;2023-06-04T04:11:37;95436.16;;;12.44;46.01
48156;BME280;35568;48.104;11.782;2023-06-04T04:14:04;95439.06;;;12.10;46.04
48156;BME280;35568;48.104;11.782;2023-06-04T04:16:31;95439.13;;;12.40;45.86
48156;BME280;35568;48.104;11.782;2023-06-04T04:18:58;95435.49;;;12.71;44.90
48156;BME280;35568;48.104;11.782;2023-06-04T04:21:25;95435.40;;;12.73;43.99
48156;BME280;35568;48.104;11.782;2023-06-04T04:23:52;95435.59;;;13.33;43.81
48156;BME280;35568;48.104;11.782;2023-06-04T04:26:19;95439.74;;;12.79;43.99
48156;BME280;35568;48.104;11.782;2023-06-04T04:28:46;95442.79;;;13.40;43.83
48156;BME280;35568;48.104;11.782;2023-06-04T04:31:13;95446.11;;;13.66;43.18
48156;BME280;35568;48.104;11.782;2023-06-04T04:33:40;95444.13;;;13.33;43.14
48156;BME280;35568;48.104;11.782;2023-06-04T04:36:07;95446.12;;;13.15;43.25
48156;BME280;35568;48.104;11.782;2023-06-04T04:38:34;95448.17;;;13.75;42.87
48156;BME280;35568;48.104;11.782;2023-06-04T04:41:00;95451.31;;;14.05;42.22
48156;BME280;35568;48.104;11.782;2023-06-04T04:43:30;95452.16;;;14.08;42.44
48156;BME280;35568;48.104;11.782;2023-06-04T04:45:57;95451.97;;;14.28;41.75
48156;BME280;35568;48.104;11.782;2023-06-04T04:48:25;95456.30;;;14.27;41.94
48156;BME280;35568;48.104;11.782;2023-06-04T04:50:51;95459.27;;;14.10;42.02
48156;BME280;35568;48.104;11.782;2023-06-04T04:53:18;95460.08;;;14.64;41.13
48156;BME280;35568;48.104;11.782;2023-06-04T04:55:45;95462.76;;;14.57;40.51
48156;BME280;35568;48.104;11.782;2023-06-04T04:58:13;95462.45;;;14.69;39.40
48156;BME280;35568;48.104;11.782;2023-06-04T05:00:40;95463.45;;;14.45;38.83
48156;BME280;35568;48.104;11.782;2023-06-04T05:03:07;95467.71;;;14.58;38.86
48156;BME280;35568;48.104;11.782;2023-06-04T05:05:34;95469.30;;;14.78;38.70
48156;BME280;35568;48.104;11.782;2023-06-04T05:08:01;95467.74;;;15.36;38.46
48156;BME280;35568;48.104;11.782;2023-06-04T05:10:27;95470.86;;;15.23;38.34
48156;BME280;35568;48.104;11.782;2023-06-04T05:12:56;95473.83;;;15.30;37.95
48156;BME280;35568;48.104;11.782;2023-06-04T05:15:25;95471.34;;;15.50;37.01
48156;BME280;35568;48.104;11.782;2023-06-04T05:17:52;95472.74;;;15.59;36.63
48156;BME280;35568;48.104;11.782;2023-06-04T05:20:20;95476.71;;;15.85;36.79
48156;BME280;35568;48.104;11.782;2023-06-04T05:22:47;95480.10;;;15.68;36.52
48156;BME280;35568;48.104;11.782;2023-06-04T05:25:14;95481.55;;;15.87;36.72
48156;BME280;35568;48.104;11.782;2023-06-04T05:27:41;95475.71;;;16.10;35.87
48156;BME280;35568;48.104;11.782;2023-06-04T05:30:09;95479.95;;;16.49;35.38
48156;BME280;35568;48.104;11.782;2023-06-04T05:32:36;95484.11;;;16.44;35.29
48156;BME280;35568;48.104;11.782;2023-06-04T05:35:03;95488.34;;;16.30;34.94
48156;BME280;35568;48.104;11.782;2023-06-04T05:37:31;95489.57;;;16.63;34.88
48156;BME280;35568;48.104;11.782;2023-06-04T05:39:58;95491.18;;;16.61;34.73
48156;BME280;35568;48.104;11.782;2023-06-04T05:42:26;95492.35;;;16.83;34.12
48156;BME280;35568;48.104;11.782;2023-06-04T05:44:52;95495.24;;;16.75;33.94
48156;BME280;35568;48.104;11.782;2023-06-04T05:47:19;95500.85;;;17.44;33.69
48156;BME280;35568;48.104;11.782;2023-06-04T05:49:46;95503.94;;;17.65;33.75
48156;BME280;35568;48.104;11.782;2023-06-04T05:52:13;95508.00;;;17.31;33.49
48156;BME280;35568;48.104;11.782;2023-06-04T05:54:40;95512.79;;;17.63;33.66
48156;BME280;35568;48.104;11.782;2023-06-04T05:57:07;95515.16;;;17.57;33.64
48156;BME280;35568;48.104;11.782;2023-06-04T05:59:34;95509.91;;;18.17;33.12
48156;BME280;35568;48.104;11.782;2023-06-04T06:02:01;95510.30;;;18.28;32.66
48156;BME280;35568;48.104;11.782;2023-06-04T06:04:28;95508.99;;;18.52;32.37
48156;BME280;35568;48.104;11.782;2023-06-04T06:06:55;95510.33;;;19.09;32.22
48156;BME280;35568;48.104;11.782;2023-06-04T06:09:22;95511.31;;;18.91;31.60
48156;BME280;35568;48.104;11.782;2023-06-04T06:11:48;95509.79;;;18.90;31.93
48156;BME280;35568;48.104;11.782;2023-06-04T06:14:15;95512.54;;;19.38;31.41
48156;BME280;35568;48.104;11.782;2023-06-04T06:16:42;95513.96;;;18.93;32.24
48156;BME280;35568;48.104;11.782;2023-06-04T06:19:09;95511.87;;;19.26;31.50
48156;BME280;35568;48.104;11.782;2023-06-04T06:21:36;95513.30;;;18.90;31.81
48156;BME280;35568;48.104;11.782;2023-06-04T06:24:04;95515.49;;;19.35;31.53
48156;BME280;35568;48.104;11.782;2023-06-04T06:26:32;95517.53;;;19.72;31.03
48156;BME280;35568;48.104;11.782;2023-06-04T06:28:59;95521.34;;;20.10;30.80
48156;BME280;35568;48.104;11.782;2023-06-04T06:31:27;95523.27;;;20.37;30.33
48156;BME280;35568;48.104;11.782;2023-06-04T06:33:55;95524.73;;;21.14;29.65
48156;BME280;35568;48.104;11.782;2023-06-04T06:36:22;95525.31;;;21.18;29.41
48156;BME280;35568;48.104;11.782;2023-06-04T06:38:49;95525.70;;;21.51;29.30
48156;BME280;35568;48.104;11.782;2023-06-04T06:41:16;95528.93;;;21.13;29.55
48156;BME280;35568;48.104;11.782;2023-06-04T06:43:43;95530.80;;;21.58;29.14
48156;BME280;35568;48.104;11.782;2023-06-04T06:46:11;95532.55;;;21.48;29.13
48156;BME280;35568;48.104;11.782;2023-06-04T06:48:38;95534.62;;;21.99;28.61
48156;BME280;35568;48.104;11.782;2023-06-04T06:51:05;95532.85;;;21.82;29.00
48156;BME280;35568;48.104;11.782;2023-06-04T06:53:32;95531.12;;;22.08;28.50
48156;BME280;35568;48.104;11.782;2023-06-04T06:55:59;95531.40;;;22.06;28.50
48156;BME280;35568;48.104;11.782;2023-06-04T06:58:26;95529.30;;;22.53;28.07
48156;BME280;35568;48.104;11.782;2023-06-04T07:00:53;95529.51;;;22.48;27.93
48156;BME280;35568;48.104;11.782;2023-06-04T07:03:19;95531.68;;;22.76;27.76
48156;BME280;35568;48.104;11.782;2023-06-04T07:05:47;95527.88;;;22.82;27.66
48156;BME280;35568;48.104;11.782;2023-06-04T07:08:15;95520.05;;;23.32;27.39
48156;BME280;35568;48.104;11.782;2023-06-04T07:10:41;95520.91;;;23.60;27.01
48156;BME280;35568;48.104;11.782;2023-06-04T07:13:09;95523.46;;;23.71;26.92
48156;BME280;35568;48.104;11.782;2023-06-04T07:15:36;95517.06;;;23.79;26.74
48156;BME280;35568;48.104;11.782;2023-06-04T07:18:03;95518.49;;;23.89;27.24
48156;BME280;35568;48.104;11.782;2023-06-04T07:20:29;95519.96;;;23.46;27.30
48156;BME280;35568;48.104;11.782;2023-06-04T07:22:56;95518.79;;;24.26;26.74
48156;BME280;35568;48.104;11.782;2023-06-04T07:25:24;95517.24;;;23.97;26.41
48156;BME280;35568;48.104;11.782;2023-06-04T07:27:51;95515.93;;;24.00;26.85
48156;BME280;35568;48.104;11.782;2023-06-04T07:30:18;95516.79;;;24.01;26.54
48156;BME280;35568;48.104;11.782;2023-06-04T07:32:46;95514.82;;;24.22;26.32
48156;BME280;35568;48.104;11.782;2023-06-04T07:35:14;95513.76;;;24.71;26.21
48156;BME280;35568;48.104;11.782;2023-06-04T07:37:40;95513.04;;;24.82;26.07
48156;BME280;35568;48.104;11.782;2023-06-04T07:40:09;95513.09;;;25.17;25.40
48156;BME280;35568;48.104;11.782;2023-06-04T07:42:36;95509.96;;;25.69;24.91
48156;BME280;35568;48.104;11.782;2023-06-04T07:45:04;95509.43;;;25.89;24.75
48156;BME280;35568;48.104;11.782;2023-06-04T07:47:31;95509.14;;;25.78;24.52
48156;BME280;35568;48.104;11.782;2023-06-04T07:49:59;95512.77;;;25.78;24.93
48156;BME280;35568;48.104;11.782;2023-06-04T07:52:27;95517.31;;;25.84;24.22
48156;BME280;35568;48.104;11.782;2023-06-04T07:54:54;95516.98;;;26.25;24.43
48156;BME280;35568;48.104;11.782;2023-06-04T07:57:21;95519.83;;;26.50;23.99
48156;BME280;35568;48.104;11.782;2023-06-04T07:59:49;95517.41;;;26.41;24.38
48156;BME280;35568;48.104;11.782;2023-06-04T08:02:16;95516.42;;;26.68;23.94
48156;BME280;35568;48.104;11.782;2023-06-04T08:04:44;95513.96;;;26.91;23.89
48156;BME280;35568;48.104;11.782;2023-06-04T08:07:12;95516.33;;;26.43;24.08
48156;BME280;35568;48.104;11.782;2023-06-04T08:09:38;95514.94;;;26.88;23.42
48156;BME280;35568;48.104;11.782;2023-06-04T08:12:06;95513.15;;;27.31;23.26
48156;BME280;35568;48.104;11.782;2023-06-04T08:14:33;95516.31;;;27.79;23.06
48156;BME280;35568;48.104;11.782;2023-06-04T08:17:00;95513.63;;;27.18;22.56
48156;BME280;35568;48.104;11.782;2023-06-04T08:19:31;95514.03;;;27.14;22.58
48156;BME280;35568;48.104;11.782;2023-06-04T08:21:58;95510.33;;;27.41;22.69
48156;BME280;35568;48.104;11.782;2023-06-04T08:24:25;95508.85;;;28.21;22.17
48156;BME280;35568;48.104;11.782;2023-06-04T08:26:52;95512.85;;;28.03;21.92
48156;BME280;35568;48.104;11.782;2023-06-04T08:29:19;95509.93;;;28.78;21.63
48156;BME280;35568;48.104;11.782;2023-06-04T08:31:51;95514.50;;;28.23;22.29
48156;BME280;35568;48.104;11.782;2023-06-04T08:34:18;95511.78;;;28.29;21.71
48156;BME280;35568;48.104;11.782;2023-06-04T08:36:45;95509.81;;;28.76;21.17
48156;BME280;35568;48.104;11.782;2023-06-04T08:39:12;95514.39;;;27.43;22.16
48156;BME280;35568;48.104;11.782;2023-06-04T08:41:43;95505.28;;;28.53;21.75
48156;BME280;35568;48.104;11.782;2023-06-04T08:44:11;95506.02;;;28.51;21.04
48156;BME280;35568;48.104;11.782;2023-06-04T08:46:38;95510.86;;;28.72;21.25
48156;BME280;35568;48.104;11.782;2023-06-04T08:49:13;95509.91;;;28.84;20.99
48156;BME280;35568;48.104;11.782;2023-06-04T08:51:41;95511.46;;;29.17;20.53
48156;BME280;35568;48.104;11.782;2023-06-04T08:54:09;95518.03;;;29.48;20.43
48156;BME280;35568;48.104;11.782;2023-06-04T08:56:37;95520.85;;;28.95;20.04
48156;BME280;35568;48.104;11.782;2023-06-04T08:59:05;95514.43;;;29.14;19.57
48156;BME280;35568;48.104;11.782;2023-06-04T09:01:33;95518.89;;;27.53;20.34
48156;BME280;35568;48.104;11.782;2023-06-04T09:04:03;95516.71;;;27.91;20.16
48156;BME280;35568;48.104;11.782;2023-06-04T09:06:30;95516.00;;;28.86;19.91
48156;BME280;35568;48.104;11.782;2023-06-04T09:09:02;95515.08;;;28.31;19.51
48156;BME280;35568;48.104;11.782;2023-06-04T09:11:33;95515.25;;;28.98;19.29
48156;BME280;35568;48.104;11.782;2023-06-04T09:14:05;95513.12;;;29.09;19.39
48156;BME280;35568;48.104;11.782;2023-06-04T09:16:42;95513.96;;;28.97;18.87
48156;BME280;35568;48.104;11.782;2023-06-04T09:19:10;95512.12;;;29.18;18.99
48156;BME280;35568;48.104;11.782;2023-06-04T09:21:47;95511.99;;;28.51;19.00
48156;BME280;35568;48.104;11.782;2023-06-04T09:24:14;95515.53;;;29.00;18.78
48156;BME280;35568;48.104;11.782;2023-06-04T09:26:42;95525.98;;;28.90;18.45
48156;BME280;35568;48.104;11.782;2023-06-04T09:29:10;95521.33;;;28.46;17.71
48156;BME280;35568;48.104;11.782;2023-06-04T09:31:37;95523.37;;;28.37;17.94
48156;BME280;35568;48.104;11.782;2023-06-04T09:34:03;95521.70;;;28.51;18.21
48156;BME280;35568;48.104;11.782;2023-06-04T09:36:31;95524.87;;;27.26;18.47
48156;BME280;35568;48.104;11.782;2023-06-04T09:38:58;95523.45;;;27.14;19.35
48156;BME280;35568;48.104;11.782;2023-06-04T09:41:26;95516.15;;;27.64;18.40
48156;BME280;35568;48.104;11.782;2023-06-04T09:44:00;95510.10;;;28.28;17.92
48156;BME280;35568;48.104;11.782;2023-06-04T09:46:27;95512.76;;;27.74;18.13
48156;BME280;35568;48.104;11.782;2023-06-04T09:49:00;95514.66;;;27.99;18.56
48156;BME280;35568;48.104;11.782;2023-06-04T09:51:27;95514.81;;;27.69;18.66
48156;BME280;35568;48.104;11.782;2023-06-04T09:53:55;95511.18;;;28.48;18.16
48156;BME280;35568;48.104;11.782;2023-06-04T09:56:22;95507.34;;;28.72;18.02
48156;BME280;35568;48.104;11.782;2023-06-04T09:58:49;95509.45;;;29.07;17.70
48156;BME280;35568;48.104;11.782;2023-06-04T10:01:18;95506.23;;;28.44;18.17
48156;BME280;35568;48.104;11.782;2023-06-04T10:03:47;95505.74;;;28.98;18.21
48156;BME280;35568;48.104;11.782;2023-06-04T10:06:15;95503.67;;;29.03;18.33
48156;BME280;35568;48.104;11.782;2023-06-04T10:08:45;95505.85;;;30.01;17.41
48156;BME280;35568;48.104;11.782;2023-06-04T10:11:13;95501.74;;;29.66;17.61
48156;BME280;35568;48.104;11.782;2023-06-04T10:13:48;95503.47;;;30.14;17.59
48156;BME280;35568;48.104;11.782;2023-06-04T10:16:19;95497.97;;;30.01;17.49
48156;BME280;35568;48.104;11.782;2023-06-04T10:18:49;95507.86;;;29.69;17.25
48156;BME280;35568;48.104;11.782;2023-06-04T10:21:17;95502.90;;;29.85;17.85
48156;BME280;35568;48.104;11.782;2023-06-04T10:23:45;95500.05;;;30.91;16.97
48156;BME280;35568;48.104;11.782;2023-06-04T10:26:14;95500.42;;;30.46;17.21
48156;BME280;35568;48.104;11.782;2023-06-04T10:28:42;95501.36;;;31.15;16.84
48156;BME280;35568;48.104;11.782;2023-06-04T10:31:09;95507.95;;;30.40;17.04
48156;BME280;35568;48.104;11.782;2023-06-04T10:33:37;95504.47;;;30.20;17.24
48156;BME280;35568;48.104;11.782;2023-06-04T10:36:16;95501.30;;;29.14;17.54
48156;BME280;35568;48.104;11.782;2023-06-04T10:38:45;95505.78;;;30.18;17.19
48156;BME280;35568;48.104;11.782;2023-06-04T10:41:14;95504.48;;;30.44;17.02
48156;BME280;35568;48.104;11.782;2023-06-04T10:43:41;95506.41;;;31.02;16.81
48156;BME280;35568;48.104;11.782;2023-06-04T10:46:12;95506.60;;;31.24;16.45
48156;BME280;35568;48.104;11.782;2023-06-04T10:48:46;95501.99;;;31.88;16.45
48156;BME280;35568;48.104;11.782;2023-06-04T10:51:13;95499.60;;;31.48;16.17
48156;BME280;35568;48.104;11.782;2023-06-04T10:53:40;95493.81;;;31.85;16.01
48156;BME280;35568;48.104;11.782;2023-06-04T10:56:07;95500.11;;;32.61;15.97
48156;BME280;35568;48.104;11.782;2023-06-04T10:58:35;95495.57;;;32.97;15.36
48156;BME280;35568;48.104;11.782;2023-06-04T11:01:02;95490.01;;;34.05;15.03
48156;BME280;35568;48.104;11.782;2023-06-04T11:03:35;95488.64;;;33.43;15.03
48156;BME280;35568;48.104;11.782;2023-06-04T11:06:02;95489.43;;;33.41;15.58
48156;BME280;35568;48.104;11.782;2023-06-04T11:08:40;95486.84;;;33.71;14.90
48156;BME280;35568;48.104;11.782;2023-06-04T11:11:12;95498.92;;;33.18;14.94
48156;BME280;35568;48.104;11.782;2023-06-04T11:13:39;95488.21;;;33.79;14.66
48156;BME280;35568;48.104;11.782;2023-06-04T11:16:15;95482.87;;;34.42;14.44
48156;BME280;35568;48.104;11.782;2023-06-04T11:18:42;95483.47;;;35.98;13.76
48156;BME280;35568;48.104;11.782;2023-06-04T11:21:10;95481.96;;;34.71;13.44
48156;BME280;35568;48.104;11.782;2023-06-04T11:23:38;95477.84;;;34.45;14.21
48156;BME280;35568;48.104;11.782;2023-06-04T11:26:06;95481.35;;;33.79;14.27
48156;BME280;35568;48.104;11.782;2023-06-04T11:28:33;95476.38;;;33.75;14.08
48156;BME280;35568;48.104;11.782;2023-06-04T11:31:01;95476.51;;;33.74;14.59
48156;BME280;35568;48.104;11.782;2023-06-04T11:33:28;95489.38;;;32.97;14.87
48156;BME280;35568;48.104;11.782;2023-06-04T11:35:56;95494.58;;;31.15;15.74
48156;BME280;35568;48.104;11.782;2023-06-04T11:38:23;95487.25;;;31.17;15.98
48156;BME280;35568;48.104;11.782;2023-06-04T11:40:58;95484.89;;;31.45;15.96
48156;BME280;35568;48.104;11.782;2023-06-04T11:43:27;95484.23;;;31.23;15.99
48156;BME280;35568;48.104;11.782;2023-06-04T11:45:54;95475.94;;;31.51;15.86
48156;BME280;35568;48.104;11.782;2023-06-04T11:48:21;95479.17;;;30.35;16.52
48156;BME280;35568;48.104;11.782;2023-06-04T11:50:48;95476.47;;;30.61;16.54
48156;BME280;35568;48.104;11.782;2023-06-04T11:53:15;95473.09;;;31.87;15.97
48156;BME280;35568;48.104;11.782;2023-06-04T11:55:42;95474.09;;;32.26;15.76
48156;BME280;35568;48.104;11.782;2023-06-04T11:58:10;95466.98;;;31.49;16.03
48156;BME280;35568;48.104;11.782;2023-06-04T12:00:37;95467.64;;;31.67;16.10
48156;BME280;35568;48.104;11.782;2023-06-04T12:03:05;95465.19;;;31.32;16.22
48156;BME280;35568;48.104;11.782;2023-06-04T12:05:32;95465.96;;;31.48;15.49
48156;BME280;35568;48.104;11.782;2023-06-04T12:08:07;95460.44;;;32.46;15.40
48156;BME280;35568;48.104;11.782;2023-06-04T12:10:37;95460.07;;;32.49;15.15
48156;BME280;35568;48.104;11.782;2023-06-04T12:13:04;95460.08;;;32.44;15.29
48156;BME280;35568;48.104;11.782;2023-06-04T12:15:33;95456.58;;;32.50;15.82
48156;BME280;35568;48.104;11.782;2023-06-04T12:18:00;95457.24;;;32.57;15.88
48156;BME280;35568;48.104;11.782;2023-06-04T12:20:33;95460.17;;;32.72;16.12
48156;BME280;35568;48.104;11.782;2023-06-04T12:23:00;95456.99;;;33.01;15.89
48156;BME280;35568;48.104;11.782;2023-06-04T12:25:28;95452.02;;;33.52;15.71
48156;BME280;35568;48.104;11.782;2023-06-04T12:27:55;95454.15;;;32.80;15.89
48156;BME280;35568;48.104;11.782;2023-06-04T12:30:23;95457.82;;;31.03;16.87
48156;BME280;35568;48.104;11.782;2023-06-04T12:32:50;95452.25;;;30.39;17.30
48156;BME280;35568;48.104;11.782;2023-06-04T12:35:17;95447.66;;;31.59;17.16
48156;BME280;35568;48.104;11.782;2023-06-04T12:37:44;95448.79;;;32.55;16.29
48156;BME280;35568;48.104;11.782;2023-06-04T12:40:11;95451.13;;;31.84;16.48
48156;BME280;35568;48.104;11.782;2023-06-04T12:42:38;95453.76;;;31.62;16.97
48156;BME280;35568;48.104;11.782;2023-06-04T12:45:07;95454.81;;;31.32;17.00
48156;BME280;35568;48.104;11.782;2023-06-04T12:47:35;95451.40;;;31.64;16.44
48156;BME280;35568;48.104;11.782;2023-06-04T12:50:02;95446.86;;;31.36;16.93
48156;BME280;35568;48.104;11.782;2023-06-04T12:52:30;95448.59;;;32.31;16.69
48156;BME280;35568;48.104;11.782;2023-06-04T12:54:58;95444.75;;;32.00;16.70